sensor_id;sensor_type;location;lat;lon;timestamp;P1;durP1;ratioP1;P2;durP2;ratioP2
27857;SDS011;16852;51.446;6.528;2024-03-08T00:01:25;27.25;;;13.25;;
27857;SDS011;16852;51.446;6.528;2024-03-08T00:03:26;26.90;;;13.20;;
27857;SDS011;16852;51.446;6.528;2024-03-08T00:05:28;24.02;;;13.35;;
27857;SDS011;16852;51.446;6.528;2024-03-08T00:07:29;22.33;;;12.85;;
27857;SDS011;16852;51.446;6.528;2024-03-08T00:09:30;22.98;;;12.90;;
27857;SDS011;16852;51.446;6.528;2024-03-08T00:11:30;20.27;;;12.50;;
27857;SDS011;16852;51.446;6.528;2024-03-08T00:13:31;22.23;;;13.18;;
27857;SDS011;16852;51.446;6.528;2024-03-08T00:15:31;20.98;;;12.20;;
27857;SDS011;16852;51.446;6.528;2024-03-08T00:17:32;19.67;;;11.52;;
27857;SDS011;16852;51.446;6.528;2024-03-08T00:19:33;20.48;;;12.45;;
27857;SDS011;16852;51.446;6.528;2024-03-08T00:21:33;19.73;;;12.88;;
27857;SDS011;16852;51.446;6.528;2024-03-08T00:23:34;22.42;;;11.68;;
27857;SDS011;16852;51.446;6.528;2024-03-08T00:25:35;21.85;;;12.90;;
27857;SDS011;16852;51.446;6.528;2024-03-08T00:27:36;20.10;;;12.77;;
27857;SDS011;16852;51.446;6.528;2024-03-08T00:29:37;18.67;;;11.68;;
27857;SDS011;16852;51.446;6.528;2024-03-08T00:31:38;20.95;;;11.65;;
27857;SDS011;16852;51.446;6.528;2024-03-08T00:33:39;20.55;;;12.38;;
27857;SDS011;16852;51.446;6.528;2024-03-08T00:35:40;19.35;;;12.00;;
27857;SDS011;16852;51.446;6.528;2024-03-08T00:37:40;21.75;;;12.52;;
27857;SDS011;16852;51.446;6.528;2024-03-08T00:39:47;20.67;;;11.90;;
27857;SDS011;16852;51.446;6.528;2024-03-08T00:43:49;21.75;;;12.48;;
27857;SDS011;16852;51.446;6.528;2024-03-08T00:45:50;18.88;;;12.32;;
27857;SDS011;16852;51.446;6.528;2024-03-08T00:47:51;19.77;;;12.30;;
27857;SDS011;16852;51.446;6.528;2024-03-08T00:49:51;24.55;;;13.18;;
27857;SDS011;16852;51.446;6.528;2024-03-08T00:51:53;19.95;;;12.50;;
27857;SDS011;16852;51.446;6.528;2024-03-08T00:53:53;22.20;;;12.52;;
27857;SDS011;16852;51.446;6.528;2024-03-08T00:55:54;22.50;;;11.88;;
27857;SDS011;16852;51.446;6.528;2024-03-08T00:57:55;22.00;;;12.90;;
27857;SDS011;16852;51.446;6.528;2024-03-08T00:59:56;18.92;;;12.45;;
27857;SDS011;16852;51.446;6.528;2024-03-08T01:01:56;20.92;;;12.65;;
27857;SDS011;16852;51.446;6.528;2024-03-08T01:03:57;22.45;;;13.07;;
27857;SDS011;16852;51.446;6.528;2024-03-08T01:05:58;23.95;;;13.07;;
27857;SDS011;16852;51.446;6.528;2024-03-08T01:08:01;23.70;;;12.88;;
27857;SDS011;16852;51.446;6.528;2024-03-08T01:10:03;20.98;;;13.60;;
27857;SDS011;16852;51.446;6.528;2024-03-08T01:12:04;24.92;;;14.60;;
27857;SDS011;16852;51.446;6.528;2024-03-08T01:14:07;22.45;;;13.10;;
27857;SDS011;16852;51.446;6.528;2024-03-08T01:16:07;22.23;;;12.98;;
27857;SDS011;16852;51.446;6.528;2024-03-08T01:18:08;20.38;;;12.85;;
27857;SDS011;16852;51.446;6.528;2024-03-08T01:20:10;24.95;;;13.55;;
27857;SDS011;16852;51.446;6.528;2024-03-08T01:22:12;25.52;;;13.90;;
27857;SDS011;16852;51.446;6.528;2024-03-08T01:24:13;22.33;;;13.30;;
27857;SDS011;16852;51.446;6.528;2024-03-08T01:26:13;22.40;;;14.10;;
27857;SDS011;16852;51.446;6.528;2024-03-08T01:28:15;23.05;;;14.70;;
27857;SDS011;16852;51.446;6.528;2024-03-08T01:30:15;21.52;;;12.93;;
27857;SDS011;16852;51.446;6.528;2024-03-08T01:32:17;22.57;;;14.07;;
27857;SDS011;16852;51.446;6.528;2024-03-08T01:34:19;24.15;;;13.65;;
27857;SDS011;16852;51.446;6.528;2024-03-08T01:36:20;21.38;;;14.00;;
27857;SDS011;16852;51.446;6.528;2024-03-08T01:38:20;22.83;;;13.52;;
27857;SDS011;16852;51.446;6.528;2024-03-08T01:40:21;21.02;;;12.90;;
27857;SDS011;16852;51.446;6.528;2024-03-08T01:42:22;25.10;;;13.73;;
27857;SDS011;16852;51.446;6.528;2024-03-08T01:44:23;26.25;;;14.32;;
27857;SDS011;16852;51.446;6.528;2024-03-08T01:46:24;23.10;;;13.95;;
27857;SDS011;16852;51.446;6.528;2024-03-08T01:48:24;22.63;;;13.75;;
27857;SDS011;16852;51.446;6.528;2024-03-08T01:50:26;23.75;;;14.60;;
27857;SDS011;16852;51.446;6.528;2024-03-08T01:52:28;24.77;;;15.32;;
27857;SDS011;16852;51.446;6.528;2024-03-08T01:54:31;25.13;;;14.13;;
27857;SDS011;16852;51.446;6.528;2024-03-08T01:56:32;24.13;;;15.40;;
27857;SDS011;16852;51.446;6.528;2024-03-08T01:58:33;24.13;;;14.73;;
27857;SDS011;16852;51.446;6.528;2024-03-08T02:00:34;24.90;;;15.13;;
27857;SDS011;16852;51.446;6.528;2024-03-08T02:02:36;26.73;;;15.48;;
27857;SDS011;16852;51.446;6.528;2024-03-08T02:04:37;25.17;;;14.93;;
27857;SDS011;16852;51.446;6.528;2024-03-08T02:06:39;29.23;;;16.77;;
27857;SDS011;16852;51.446;6.528;2024-03-08T02:08:39;27.75;;;16.38;;
27857;SDS011;16852;51.446;6.528;2024-03-08T02:10:44;29.65;;;17.20;;
27857;SDS011;16852;51.446;6.528;2024-03-08T02:12:46;26.25;;;15.75;;
27857;SDS011;16852;51.446;6.528;2024-03-08T02:14:47;27.95;;;16.70;;
27857;SDS011;16852;51.446;6.528;2024-03-08T02:16:47;27.42;;;16.95;;
27857;SDS011;16852;51.446;6.528;2024-03-08T02:18:48;23.13;;;14.88;;
27857;SDS011;16852;51.446;6.528;2024-03-08T02:22:49;26.00;;;16.20;;
27857;SDS011;16852;51.446;6.528;2024-03-08T02:24:50;24.55;;;15.95;;
27857;SDS011;16852;51.446;6.528;2024-03-08T02:26:51;28.73;;;16.80;;
27857;SDS011;16852;51.446;6.528;2024-03-08T02:28:53;28.27;;;15.50;;
27857;SDS011;16852;51.446;6.528;2024-03-08T02:30:54;27.58;;;15.50;;
27857;SDS011;16852;51.446;6.528;2024-03-08T02:32:55;27.27;;;16.20;;
27857;SDS011;16852;51.446;6.528;2024-03-08T02:34:56;26.13;;;15.82;;
27857;SDS011;16852;51.446;6.528;2024-03-08T02:36:59;22.42;;;14.63;;
27857;SDS011;16852;51.446;6.528;2024-03-08T02:39:03;28.73;;;15.45;;
27857;SDS011;16852;51.446;6.528;2024-03-08T02:41:05;30.25;;;16.08;;
27857;SDS011;16852;51.446;6.528;2024-03-08T02:43:06;28.42;;;16.30;;
27857;SDS011;16852;51.446;6.528;2024-03-08T02:45:07;32.45;;;16.67;;
27857;SDS011;16852;51.446;6.528;2024-03-08T02:47:09;25.17;;;14.98;;
27857;SDS011;16852;51.446;6.528;2024-03-08T02:49:10;28.45;;;17.40;;
27857;SDS011;16852;51.446;6.528;2024-03-08T02:51:11;30.00;;;16.83;;
27857;SDS011;16852;51.446;6.528;2024-03-08T02:53:13;27.98;;;16.88;;
27857;SDS011;16852;51.446;6.528;2024-03-08T02:55:14;30.67;;;16.33;;
27857;SDS011;16852;51.446;6.528;2024-03-08T02:57:17;28.95;;;17.70;;
27857;SDS011;16852;51.446;6.528;2024-03-08T02:59:18;32.20;;;18.65;;
27857;SDS011;16852;51.446;6.528;2024-03-08T03:01:19;29.17;;;18.00;;
27857;SDS011;16852;51.446;6.528;2024-03-08T03:03:20;32.85;;;19.88;;
27857;SDS011;16852;51.446;6.528;2024-03-08T03:05:21;30.52;;;18.92;;
27857;SDS011;16852;51.446;6.528;2024-03-08T03:07:23;31.85;;;19.30;;
27857;SDS011;16852;51.446;6.528;2024-03-08T03:09:23;30.75;;;19.15;;
27857;SDS011;16852;51.446;6.528;2024-03-08T03:11:27;29.20;;;18.35;;
27857;SDS011;16852;51.446;6.528;2024-03-08T03:13:28;33.17;;;19.60;;
27857;SDS011;16852;51.446;6.528;2024-03-08T03:15:29;29.95;;;17.80;;
27857;SDS011;16852;51.446;6.528;2024-03-08T03:17:30;32.83;;;19.30;;
27857;SDS011;16852;51.446;6.528;2024-03-08T03:19:30;29.25;;;18.10;;
27857;SDS011;16852;51.446;6.528;2024-03-08T03:21:31;26.83;;;16.70;;
27857;SDS011;16852;51.446;6.528;2024-03-08T03:23:32;30.23;;;18.63;;
27857;SDS011;16852;51.446;6.528;2024-03-08T03:25:33;30.20;;;17.83;;
27857;SDS011;16852;51.446;6.528;2024-03-08T03:27:35;28.65;;;17.52;;
27857;SDS011;16852;51.446;6.528;2024-03-08T03:29:37;29.30;;;17.42;;
27857;SDS011;16852;51.446;6.528;2024-03-08T03:31:39;33.15;;;17.92;;
27857;SDS011;16852;51.446;6.528;2024-03-08T03:33:40;28.25;;;17.10;;
27857;SDS011;16852;51.446;6.528;2024-03-08T03:35:41;32.85;;;19.77;;
27857;SDS011;16852;51.446;6.528;2024-03-08T03:37:43;32.38;;;19.95;;
27857;SDS011;16852;51.446;6.528;2024-03-08T03:39:51;31.75;;;19.35;;
27857;SDS011;16852;51.446;6.528;2024-03-08T03:41:53;27.88;;;17.40;;
27857;SDS011;16852;51.446;6.528;2024-03-08T03:43:53;33.15;;;19.23;;
27857;SDS011;16852;51.446;6.528;2024-03-08T03:45:54;30.20;;;18.73;;
27857;SDS011;16852;51.446;6.528;2024-03-08T03:47:55;28.73;;;19.02;;
27857;SDS011;16852;51.446;6.528;2024-03-08T03:49:56;34.42;;;20.58;;
27857;SDS011;16852;51.446;6.528;2024-03-08T03:52:01;31.65;;;19.20;;
27857;SDS011;16852;51.446;6.528;2024-03-08T03:54:04;32.70;;;19.55;;
27857;SDS011;16852;51.446;6.528;2024-03-08T03:56:05;37.88;;;19.63;;
27857;SDS011;16852;51.446;6.528;2024-03-08T03:58:07;33.50;;;18.63;;
27857;SDS011;16852;51.446;6.528;2024-03-08T04:00:09;30.20;;;18.83;;
27857;SDS011;16852;51.446;6.528;2024-03-08T04:02:10;29.52;;;18.50;;
27857;SDS011;16852;51.446;6.528;2024-03-08T04:04:11;34.45;;;19.55;;
27857;SDS011;16852;51.446;6.528;2024-03-08T04:06:12;33.10;;;19.77;;
27857;SDS011;16852;51.446;6.528;2024-03-08T04:08:14;33.43;;;19.70;;
27857;SDS011;16852;51.446;6.528;2024-03-08T04:10:14;32.22;;;19.38;;
27857;SDS011;16852;51.446;6.528;2024-03-08T04:12:15;35.40;;;19.67;;
27857;SDS011;16852;51.446;6.528;2024-03-08T04:14:16;31.30;;;19.20;;
27857;SDS011;16852;51.446;6.528;2024-03-08T04:16:16;30.80;;;18.83;;
27857;SDS011;16852;51.446;6.528;2024-03-08T04:18:18;29.45;;;18.30;;
27857;SDS011;16852;51.446;6.528;2024-03-08T04:20:19;27.80;;;17.60;;
27857;SDS011;16852;51.446;6.528;2024-03-08T04:22:21;28.87;;;17.20;;
27857;SDS011;16852;51.446;6.528;2024-03-08T04:24:21;30.60;;;18.98;;
27857;SDS011;16852;51.446;6.528;2024-03-08T04:26:22;32.97;;;18.52;;
27857;SDS011;16852;51.446;6.528;2024-03-08T04:28:23;30.45;;;18.48;;
27857;SDS011;16852;51.446;6.528;2024-03-08T04:30:23;29.95;;;18.95;;
27857;SDS011;16852;51.446;6.528;2024-03-08T04:32:24;29.27;;;18.00;;
27857;SDS011;16852;51.446;6.528;2024-03-08T04:34:25;29.23;;;17.83;;
27857;SDS011;16852;51.446;6.528;2024-03-08T04:36:25;34.10;;;20.17;;
27857;SDS011;16852;51.446;6.528;2024-03-08T04:38:26;28.75;;;18.15;;
27857;SDS011;16852;51.446;6.528;2024-03-08T04:40:26;31.65;;;18.20;;
27857;SDS011;16852;51.446;6.528;2024-03-08T04:42:27;32.38;;;21.05;;
27857;SDS011;16852;51.446;6.528;2024-03-08T04:44:30;34.13;;;20.90;;
27857;SDS011;16852;51.446;6.528;2024-03-08T04:46:31;36.72;;;20.17;;
27857;SDS011;16852;51.446;6.528;2024-03-08T04:48:32;36.85;;;20.88;;
27857;SDS011;16852;51.446;6.528;2024-03-08T04:50:32;34.58;;;20.45;;
27857;SDS011;16852;51.446;6.528;2024-03-08T04:52:34;33.42;;;20.00;;
27857;SDS011;16852;51.446;6.528;2024-03-08T04:54:35;30.02;;;18.67;;
27857;SDS011;16852;51.446;6.528;2024-03-08T04:56:36;31.27;;;19.80;;
27857;SDS011;16852;51.446;6.528;2024-03-08T04:58:36;36.75;;;20.27;;
27857;SDS011;16852;51.446;6.528;2024-03-08T05:00:37;32.53;;;18.92;;
27857;SDS011;16852;51.446;6.528;2024-03-08T05:02:38;29.75;;;18.60;;
27857;SDS011;16852;51.446;6.528;2024-03-08T05:04:38;29.45;;;17.75;;
27857;SDS011;16852;51.446;6.528;2024-03-08T05:06:39;32.13;;;19.05;;
27857;SDS011;16852;51.446;6.528;2024-03-08T05:08:40;31.25;;;18.88;;
27857;SDS011;16852;51.446;6.528;2024-03-08T05:10:41;31.40;;;18.98;;
27857;SDS011;16852;51.446;6.528;2024-03-08T05:12:41;31.83;;;19.10;;
27857;SDS011;16852;51.446;6.528;2024-03-08T05:14:43;32.50;;;19.25;;
27857;SDS011;16852;51.446;6.528;2024-03-08T05:16:44;37.83;;;20.73;;
27857;SDS011;16852;51.446;6.528;2024-03-08T05:18:48;32.28;;;19.33;;
27857;SDS011;16852;51.446;6.528;2024-03-08T05:20:49;35.70;;;20.70;;
27857;SDS011;16852;51.446;6.528;2024-03-08T05:22:50;34.80;;;19.60;;
27857;SDS011;16852;51.446;6.528;2024-03-08T05:24:51;35.95;;;19.95;;
27857;SDS011;16852;51.446;6.528;2024-03-08T05:26:52;38.00;;;21.35;;
27857;SDS011;16852;51.446;6.528;2024-03-08T05:28:53;33.17;;;17.90;;
27857;SDS011;16852;51.446;6.528;2024-03-08T05:30:53;33.47;;;19.30;;
27857;SDS011;16852;51.446;6.528;2024-03-08T05:32:56;31.80;;;19.35;;
27857;SDS011;16852;51.446;6.528;2024-03-08T05:34:57;31.73;;;18.88;;
27857;SDS011;16852;51.446;6.528;2024-03-08T05:36:58;34.30;;;20.48;;
27857;SDS011;16852;51.446;6.528;2024-03-08T05:39:00;37.05;;;21.20;;
27857;SDS011;16852;51.446;6.528;2024-03-08T05:41:00;36.55;;;20.27;;
27857;SDS011;16852;51.446;6.528;2024-03-08T05:43:01;35.80;;;20.00;;
27857;SDS011;16852;51.446;6.528;2024-03-08T05:45:04;34.42;;;20.58;;
27857;SDS011;16852;51.446;6.528;2024-03-08T05:47:06;32.90;;;19.13;;
27857;SDS011;16852;51.446;6.528;2024-03-08T05:49:07;34.65;;;20.40;;
27857;SDS011;16852;51.446;6.528;2024-03-08T05:51:09;39.35;;;22.15;;
27857;SDS011;16852;51.446;6.528;2024-03-08T05:53:10;35.92;;;20.95;;
27857;SDS011;16852;51.446;6.528;2024-03-08T05:55:11;37.85;;;21.60;;
27857;SDS011;16852;51.446;6.528;2024-03-08T05:57:14;34.97;;;20.80;;
27857;SDS011;16852;51.446;6.528;2024-03-08T05:59:14;38.83;;;19.38;;
27857;SDS011;16852;51.446;6.528;2024-03-08T06:01:15;36.47;;;20.65;;
27857;SDS011;16852;51.446;6.528;2024-03-08T06:03:16;37.83;;;20.83;;
27857;SDS011;16852;51.446;6.528;2024-03-08T06:05:16;37.78;;;20.48;;
27857;SDS011;16852;51.446;6.528;2024-03-08T06:07:17;33.58;;;19.48;;
27857;SDS011;16852;51.446;6.528;2024-03-08T06:09:18;33.80;;;19.45;;
27857;SDS011;16852;51.446;6.528;2024-03-08T06:11:23;35.63;;;21.00;;
27857;SDS011;16852;51.446;6.528;2024-03-08T06:13:23;33.50;;;19.38;;
27857;SDS011;16852;51.446;6.528;2024-03-08T06:15:24;37.30;;;21.80;;
27857;SDS011;16852;51.446;6.528;2024-03-08T06:17:24;41.72;;;22.08;;
27857;SDS011;16852;51.446;6.528;2024-03-08T06:19:25;36.55;;;20.52;;
27857;SDS011;16852;51.446;6.528;2024-03-08T06:21:26;37.28;;;21.90;;
27857;SDS011;16852;51.446;6.528;2024-03-08T06:23:27;35.28;;;20.75;;
27857;SDS011;16852;51.446;6.528;2024-03-08T06:25:28;42.55;;;20.70;;
27857;SDS011;16852;51.446;6.528;2024-03-08T06:27:29;32.67;;;20.33;;
27857;SDS011;16852;51.446;6.528;2024-03-08T06:29:33;36.90;;;22.45;;
27857;SDS011;16852;51.446;6.528;2024-03-08T06:31:34;38.08;;;21.48;;
27857;SDS011;16852;51.446;6.528;2024-03-08T06:33:38;35.22;;;20.60;;
27857;SDS011;16852;51.446;6.528;2024-03-08T06:35:39;35.20;;;21.13;;
27857;SDS011;16852;51.446;6.528;2024-03-08T06:37:39;36.33;;;21.48;;
27857;SDS011;16852;51.446;6.528;2024-03-08T06:39:42;36.90;;;20.85;;
27857;SDS011;16852;51.446;6.528;2024-03-08T06:41:42;37.00;;;21.15;;
27857;SDS011;16852;51.446;6.528;2024-03-08T06:43:47;40.55;;;22.45;;
27857;SDS011;16852;51.446;6.528;2024-03-08T06:45:51;38.70;;;21.80;;
27857;SDS011;16852;51.446;6.528;2024-03-08T06:47:52;36.97;;;21.25;;
27857;SDS011;16852;51.446;6.528;2024-03-08T06:49:54;40.95;;;21.92;;
27857;SDS011;16852;51.446;6.528;2024-03-08T06:51:55;37.08;;;21.85;;
27857;SDS011;16852;51.446;6.528;2024-03-08T06:53:57;39.88;;;22.80;;
27857;SDS011;16852;51.446;6.528;2024-03-08T06:55:57;38.80;;;22.92;;
27857;SDS011;16852;51.446;6.528;2024-03-08T06:57:58;36.92;;;22.38;;
27857;SDS011;16852;51.446;6.528;2024-03-08T06:59:59;37.10;;;22.55;;
27857;SDS011;16852;51.446;6.528;2024-03-08T07:01:59;38.78;;;23.10;;
27857;SDS011;16852;51.446;6.528;2024-03-08T07:04:00;38.15;;;21.80;;
27857;SDS011;16852;51.446;6.528;2024-03-08T07:06:05;44.72;;;22.13;;
27857;SDS011;16852;51.446;6.528;2024-03-08T07:08:07;38.92;;;21.67;;
27857;SDS011;16852;51.446;6.528;2024-03-08T07:10:08;36.25;;;21.27;;
27857;SDS011;16852;51.446;6.528;2024-03-08T07:12:11;39.28;;;22.92;;
27857;SDS011;16852;51.446;6.528;2024-03-08T07:14:13;38.65;;;22.70;;
27857;SDS011;16852;51.446;6.528;2024-03-08T07:16:15;40.95;;;21.75;;
27857;SDS011;16852;51.446;6.528;2024-03-08T07:18:16;36.72;;;22.20;;
27857;SDS011;16852;51.446;6.528;2024-03-08T07:20:16;36.80;;;21.13;;
27857;SDS011;16852;51.446;6.528;2024-03-08T07:22:18;35.70;;;20.75;;
27857;SDS011;16852;51.446;6.528;2024-03-08T07:24:19;34.28;;;19.85;;
27857;SDS011;16852;51.446;6.528;2024-03-08T07:26:39;39.28;;;22.55;;
27857;SDS011;16852;51.446;6.528;2024-03-08T07:28:39;34.47;;;21.15;;
27857;SDS011;16852;51.446;6.528;2024-03-08T07:30:40;31.67;;;19.50;;
27857;SDS011;16852;51.446;6.528;2024-03-08T07:32:43;35.47;;;20.25;;
27857;SDS011;16852;51.446;6.528;2024-03-08T07:34:44;36.33;;;21.45;;
27857;SDS011;16852;51.446;6.528;2024-03-08T07:36:44;32.17;;;19.75;;
27857;SDS011;16852;51.446;6.528;2024-03-08T07:38:45;32.47;;;20.02;;
27857;SDS011;16852;51.446;6.528;2024-03-08T07:40:46;35.75;;;19.17;;
27857;SDS011;16852;51.446;6.528;2024-03-08T07:42:48;35.15;;;20.65;;
27857;SDS011;16852;51.446;6.528;2024-03-08T07:44:49;34.03;;;20.73;;
27857;SDS011;16852;51.446;6.528;2024-03-08T07:46:50;32.90;;;20.08;;
27857;SDS011;16852;51.446;6.528;2024-03-08T07:48:50;28.45;;;18.13;;
27857;SDS011;16852;51.446;6.528;2024-03-08T07:50:51;31.73;;;19.63;;
27857;SDS011;16852;51.446;6.528;2024-03-08T07:52:52;29.52;;;19.10;;
27857;SDS011;16852;51.446;6.528;2024-03-08T07:54:52;29.33;;;19.23;;
27857;SDS011;16852;51.446;6.528;2024-03-08T07:56:54;29.27;;;18.67;;
27857;SDS011;16852;51.446;6.528;2024-03-08T07:58:55;33.35;;;19.38;;
27857;SDS011;16852;51.446;6.528;2024-03-08T08:00:55;31.30;;;19.17;;
27857;SDS011;16852;51.446;6.528;2024-03-08T08:02:56;37.20;;;18.98;;
27857;SDS011;16852;51.446;6.528;2024-03-08T08:04:57;30.20;;;17.92;;
27857;SDS011;16852;51.446;6.528;2024-03-08T08:06:59;29.83;;;18.13;;
27857;SDS011;16852;51.446;6.528;2024-03-08T08:08:59;33.10;;;17.50;;
27857;SDS011;16852;51.446;6.528;2024-03-08T08:11:00;28.70;;;17.10;;
27857;SDS011;16852;51.446;6.528;2024-03-08T08:13:02;26.08;;;17.42;;
27857;SDS011;16852;51.446;6.528;2024-03-08T08:15:06;28.90;;;18.48;;
27857;SDS011;16852;51.446;6.528;2024-03-08T08:17:07;25.50;;;17.25;;
27857;SDS011;16852;51.446;6.528;2024-03-08T08:19:08;33.25;;;18.65;;
27857;SDS011;16852;51.446;6.528;2024-03-08T08:21:09;25.42;;;16.35;;
27857;SDS011;16852;51.446;6.528;2024-03-08T08:23:10;26.83;;;17.77;;
27857;SDS011;16852;51.446;6.528;2024-03-08T08:25:12;27.58;;;16.75;;
27857;SDS011;16852;51.446;6.528;2024-03-08T08:27:13;23.55;;;16.02;;
27857;SDS011;16852;51.446;6.528;2024-03-08T08:29:14;28.95;;;17.58;;
27857;SDS011;16852;51.446;6.528;2024-03-08T08:31:15;26.73;;;17.08;;
27857;SDS011;16852;51.446;6.528;2024-03-08T08:33:15;26.08;;;17.60;;
27857;SDS011;16852;51.446;6.528;2024-03-08T08:35:16;26.48;;;16.83;;
27857;SDS011;16852;51.446;6.528;2024-03-08T08:37:19;24.02;;;16.10;;
27857;SDS011;16852;51.446;6.528;2024-03-08T08:39:20;26.95;;;17.55;;
27857;SDS011;16852;51.446;6.528;2024-03-08T08:41:22;26.40;;;16.33;;
27857;SDS011;16852;51.446;6.528;2024-03-08T08:43:23;29.20;;;17.45;;
27857;SDS011;16852;51.446;6.528;2024-03-08T08:45:26;26.77;;;16.75;;
27857;SDS011;16852;51.446;6.528;2024-03-08T08:47:27;25.38;;;16.45;;
27857;SDS011;16852;51.446;6.528;2024-03-08T08:49:28;26.73;;;16.05;;
27857;SDS011;16852;51.446;6.528;2024-03-08T08:51:28;25.95;;;16.50;;
27857;SDS011;16852;51.446;6.528;2024-03-08T08:53:29;26.40;;;17.30;;
27857;SDS011;16852;51.446;6.528;2024-03-08T08:55:30;25.52;;;16.60;;
27857;SDS011;16852;51.446;6.528;2024-03-08T08:57:31;28.63;;;17.60;;
27857;SDS011;16852;51.446;6.528;2024-03-08T08:59:33;26.45;;;16.00;;
27857;SDS011;16852;51.446;6.528;2024-03-08T09:01:35;28.70;;;18.40;;
27857;SDS011;16852;51.446;6.528;2024-03-08T09:03:36;31.33;;;18.88;;
27857;SDS011;16852;51.446;6.528;2024-03-08T09:05:37;30.63;;;18.52;;
27857;SDS011;16852;51.446;6.528;2024-03-08T09:07:37;27.75;;;16.17;;
27857;SDS011;16852;51.446;6.528;2024-03-08T09:09:38;27.33;;;17.17;;
27857;SDS011;16852;51.446;6.528;2024-03-08T09:11:39;25.13;;;15.95;;
27857;SDS011;16852;51.446;6.528;2024-03-08T09:15:44;25.63;;;16.70;;
27857;SDS011;16852;51.446;6.528;2024-03-08T09:17:45;27.48;;;16.88;;
27857;SDS011;16852;51.446;6.528;2024-03-08T09:19:46;31.08;;;17.45;;
27857;SDS011;16852;51.446;6.528;2024-03-08T09:21:49;31.27;;;17.33;;
27857;SDS011;16852;51.446;6.528;2024-03-08T09:23:51;29.30;;;17.52;;
27857;SDS011;16852;51.446;6.528;2024-03-08T09:25:52;27.70;;;17.52;;
27857;SDS011;16852;51.446;6.528;2024-03-08T09:27:52;27.90;;;16.25;;
27857;SDS011;16852;51.446;6.528;2024-03-08T09:29:53;27.15;;;16.63;;
27857;SDS011;16852;51.446;6.528;2024-03-08T09:31:53;28.83;;;16.75;;
27857;SDS011;16852;51.446;6.528;2024-03-08T09:33:54;27.85;;;16.60;;
27857;SDS011;16852;51.446;6.528;2024-03-08T09:35:55;26.67;;;16.88;;
27857;SDS011;16852;51.446;6.528;2024-03-08T09:37:57;30.13;;;18.00;;
27857;SDS011;16852;51.446;6.528;2024-03-08T09:39:58;30.30;;;16.60;;
27857;SDS011;16852;51.446;6.528;2024-03-08T09:41:59;29.10;;;15.85;;
27857;SDS011;16852;51.446;6.528;2024-03-08T09:44:00;29.77;;;16.00;;
27857;SDS011;16852;51.446;6.528;2024-03-08T09:46:02;23.77;;;14.63;;
27857;SDS011;16852;51.446;6.528;2024-03-08T09:48:04;26.63;;;16.02;;
27857;SDS011;16852;51.446;6.528;2024-03-08T09:50:06;28.23;;;16.20;;
27857;SDS011;16852;51.446;6.528;2024-03-08T09:52:12;25.45;;;15.55;;
27857;SDS011;16852;51.446;6.528;2024-03-08T09:54:14;26.33;;;16.38;;
27857;SDS011;16852;51.446;6.528;2024-03-08T09:58:17;27.00;;;15.18;;
27857;SDS011;16852;51.446;6.528;2024-03-08T10:00:36;27.25;;;16.45;;
27857;SDS011;16852;51.446;6.528;2024-03-08T10:02:37;27.55;;;15.98;;
27857;SDS011;16852;51.446;6.528;2024-03-08T10:04:37;26.10;;;16.67;;
27857;SDS011;16852;51.446;6.528;2024-03-08T10:06:42;35.38;;;18.75;;
27857;SDS011;16852;51.446;6.528;2024-03-08T10:08:43;28.80;;;18.02;;
27857;SDS011;16852;51.446;6.528;2024-03-08T10:10:45;26.85;;;16.33;;
27857;SDS011;16852;51.446;6.528;2024-03-08T10:12:46;29.40;;;17.95;;
27857;SDS011;16852;51.446;6.528;2024-03-08T10:14:46;31.95;;;19.35;;
27857;SDS011;16852;51.446;6.528;2024-03-08T10:16:47;28.00;;;17.75;;
27857;SDS011;16852;51.446;6.528;2024-03-08T10:18:47;29.52;;;17.67;;
27857;SDS011;16852;51.446;6.528;2024-03-08T10:23:10;31.02;;;17.33;;
27857;SDS011;16852;51.446;6.528;2024-03-08T10:25:11;29.77;;;17.10;;
27857;SDS011;16852;51.446;6.528;2024-03-08T10:27:12;26.00;;;15.75;;
27857;SDS011;16852;51.446;6.528;2024-03-08T10:29:12;32.13;;;17.42;;
27857;SDS011;16852;51.446;6.528;2024-03-08T10:31:15;28.23;;;17.45;;
27857;SDS011;16852;51.446;6.528;2024-03-08T10:33:17;29.67;;;17.65;;
27857;SDS011;16852;51.446;6.528;2024-03-08T10:35:17;30.10;;;18.70;;
27857;SDS011;16852;51.446;6.528;2024-03-08T10:37:19;26.75;;;15.63;;
27857;SDS011;16852;51.446;6.528;2024-03-08T10:39:23;32.88;;;17.48;;
27857;SDS011;16852;51.446;6.528;2024-03-08T10:41:24;27.65;;;17.27;;
27857;SDS011;16852;51.446;6.528;2024-03-08T10:43:31;28.48;;;18.48;;
27857;SDS011;16852;51.446;6.528;2024-03-08T10:45:40;27.10;;;17.33;;
27857;SDS011;16852;51.446;6.528;2024-03-08T10:47:44;28.70;;;16.90;;
27857;SDS011;16852;51.446;6.528;2024-03-08T10:51:50;28.35;;;17.08;;
27857;SDS011;16852;51.446;6.528;2024-03-08T10:53:52;28.48;;;16.98;;
27857;SDS011;16852;51.446;6.528;2024-03-08T10:55:55;26.77;;;15.20;;
27857;SDS011;16852;51.446;6.528;2024-03-08T10:57:57;27.92;;;17.13;;
27857;SDS011;16852;51.446;6.528;2024-03-08T10:59:58;25.88;;;16.33;;
27857;SDS011;16852;51.446;6.528;2024-03-08T11:01:59;25.63;;;16.30;;
27857;SDS011;16852;51.446;6.528;2024-03-08T11:04:00;24.52;;;15.20;;
27857;SDS011;16852;51.446;6.528;2024-03-08T11:06:04;22.42;;;14.63;;
27857;SDS011;16852;51.446;6.528;2024-03-08T11:08:26;23.15;;;12.98;;
27857;SDS011;16852;51.446;6.528;2024-03-08T11:10:31;19.52;;;12.02;;
27857;SDS011;16852;51.446;6.528;2024-03-08T11:12:38;18.63;;;10.95;;
27857;SDS011;16852;51.446;6.528;2024-03-08T11:14:42;21.80;;;13.35;;
27857;SDS011;16852;51.446;6.528;2024-03-08T11:16:49;21.08;;;11.93;;
27857;SDS011;16852;51.446;6.528;2024-03-08T11:18:49;20.50;;;11.80;;
27857;SDS011;16852;51.446;6.528;2024-03-08T11:20:50;18.48;;;11.45;;
27857;SDS011;16852;51.446;6.528;2024-03-08T11:22:54;17.25;;;10.65;;
27857;SDS011;16852;51.446;6.528;2024-03-08T11:25:01;17.90;;;10.57;;
27857;SDS011;16852;51.446;6.528;2024-03-08T11:27:03;17.88;;;10.52;;
27857;SDS011;16852;51.446;6.528;2024-03-08T11:31:30;15.77;;;10.02;;
27857;SDS011;16852;51.446;6.528;2024-03-08T11:33:34;16.70;;;9.63;;
27857;SDS011;16852;51.446;6.528;2024-03-08T11:35:36;12.68;;;8.40;;
27857;SDS011;16852;51.446;6.528;2024-03-08T11:37:37;17.63;;;10.30;;
27857;SDS011;16852;51.446;6.528;2024-03-08T11:39:39;13.48;;;8.93;;
27857;SDS011;16852;51.446;6.528;2024-03-08T11:41:40;13.95;;;9.30;;
27857;SDS011;16852;51.446;6.528;2024-03-08T11:43:42;15.70;;;9.70;;
27857;SDS011;16852;51.446;6.528;2024-03-08T11:45:42;18.67;;;9.85;;
27857;SDS011;16852;51.446;6.528;2024-03-08T11:47:43;16.17;;;8.93;;
27857;SDS011;16852;51.446;6.528;2024-03-08T11:49:47;14.75;;;9.65;;
27857;SDS011;16852;51.446;6.528;2024-03-08T11:51:50;17.10;;;9.38;;
27857;SDS011;16852;51.446;6.528;2024-03-08T11:53:53;13.88;;;9.10;;
27857;SDS011;16852;51.446;6.528;2024-03-08T11:55:54;15.63;;;9.45;;
27857;SDS011;16852;51.446;6.528;2024-03-08T11:58:02;15.38;;;8.90;;
27857;SDS011;16852;51.446;6.528;2024-03-08T12:00:04;13.10;;;8.82;;
27857;SDS011;16852;51.446;6.528;2024-03-08T12:02:08;14.30;;;8.65;;
27857;SDS011;16852;51.446;6.528;2024-03-08T12:04:11;15.00;;;9.60;;
27857;SDS011;16852;51.446;6.528;2024-03-08T12:06:12;13.88;;;8.52;;